sensor_id;sensor_type;location;lat;lon;timestamp;P1;durP1;ratioP1;P2;durP2;ratioP2
76262;SDS011;65080;50.908;6.916;2023-04-25T00:01:06;5.83;;;3.50;;
76262;SDS011;65080;50.908;6.916;2023-04-25T00:03:35;10.53;;;4.00;;
76262;SDS011;65080;50.908;6.916;2023-04-25T00:06:06;15.07;;;3.83;;
76262;SDS011;65080;50.908;6.916;2023-04-25T00:08:34;8.27;;;3.40;;
76262;SDS011;65080;50.908;6.916;2023-04-25T00:11:03;9.90;;;4.03;;
76262;SDS011;65080;50.908;6.916;2023-04-25T00:13:32;7.50;;;2.67;;
76262;SDS011;65080;50.908;6.916;2023-04-25T00:16:02;10.80;;;3.50;;
76262;SDS011;65080;50.908;6.916;2023-04-25T00:18:30;9.67;;;3.80;;
76262;SDS011;65080;50.908;6.916;2023-04-25T00:20:59;8.10;;;3.70;;
76262;SDS011;65080;50.908;6.916;2023-04-25T00:23:29;8.57;;;4.47;;
76262;SDS011;65080;50.908;6.916;2023-04-25T00:25:57;8.47;;;4.37;;
76262;SDS011;65080;50.908;6.916;2023-04-25T00:28:25;12.87;;;4.03;;
76262;SDS011;65080;50.908;6.916;2023-04-25T00:30:54;9.40;;;3.90;;
76262;SDS011;65080;50.908;6.916;2023-04-25T00:33:23;7.30;;;3.20;;
76262;SDS011;65080;50.908;6.916;2023-04-25T00:35:51;7.33;;;3.77;;
76262;SDS011;65080;50.908;6.916;2023-04-25T00:38:19;9.30;;;3.50;;
76262;SDS011;65080;50.908;6.916;2023-04-25T00:40:48;10.23;;;4.27;;
76262;SDS011;65080;50.908;6.916;2023-04-25T00:43:16;13.30;;;4.40;;
76262;SDS011;65080;50.908;6.916;2023-04-25T00:45:44;13.50;;;4.10;;
76262;SDS011;65080;50.908;6.916;2023-04-25T00:48:16;14.40;;;3.90;;
76262;SDS011;65080;50.908;6.916;2023-04-25T00:50:48;7.87;;;3.90;;
76262;SDS011;65080;50.908;6.916;2023-04-25T00:53:20;10.40;;;4.10;;
76262;SDS011;65080;50.908;6.916;2023-04-25T00:55:49;8.80;;;3.77;;
76262;SDS011;65080;50.908;6.916;2023-04-25T00:58:18;10.50;;;4.23;;
76262;SDS011;65080;50.908;6.916;2023-04-25T01:00:47;12.60;;;4.23;;
76262;SDS011;65080;50.908;6.916;2023-04-25T01:03:18;10.40;;;3.87;;
76262;SDS011;65080;50.908;6.916;2023-04-25T01:05:48;7.53;;;3.30;;
76262;SDS011;65080;50.908;6.916;2023-04-25T01:08:17;11.23;;;3.60;;
76262;SDS011;65080;50.908;6.916;2023-04-25T01:10:46;11.47;;;3.90;;
76262;SDS011;65080;50.908;6.916;2023-04-25T01:13:14;16.37;;;4.53;;
76262;SDS011;65080;50.908;6.916;2023-04-25T01:15:42;12.37;;;4.97;;
76262;SDS011;65080;50.908;6.916;2023-04-25T01:18:11;9.43;;;3.67;;
76262;SDS011;65080;50.908;6.916;2023-04-25T01:20:40;12.70;;;3.77;;
76262;SDS011;65080;50.908;6.916;2023-04-25T01:23:10;12.23;;;4.30;;
76262;SDS011;65080;50.908;6.916;2023-04-25T01:25:39;10.43;;;4.20;;
76262;SDS011;65080;50.908;6.916;2023-04-25T01:28:08;9.93;;;3.90;;
76262;SDS011;65080;50.908;6.916;2023-04-25T01:30:37;11.73;;;4.60;;
76262;SDS011;65080;50.908;6.916;2023-04-25T01:33:06;13.50;;;4.57;;
76262;SDS011;65080;50.908;6.916;2023-04-25T01:35:35;12.90;;;3.90;;
76262;SDS011;65080;50.908;6.916;2023-04-25T01:38:04;12.23;;;4.67;;
76262;SDS011;65080;50.908;6.916;2023-04-25T01:40:33;12.20;;;4.73;;
76262;SDS011;65080;50.908;6.916;2023-04-25T01:43:05;11.93;;;5.33;;
76262;SDS011;65080;50.908;6.916;2023-04-25T01:45:34;15.00;;;4.60;;
76262;SDS011;65080;50.908;6.916;2023-04-25T01:48:03;10.83;;;4.20;;
76262;SDS011;65080;50.908;6.916;2023-04-25T01:50:32;18.60;;;6.13;;
76262;SDS011;65080;50.908;6.916;2023-04-25T01:53:00;18.50;;;5.10;;
76262;SDS011;65080;50.908;6.916;2023-04-25T01:55:29;15.97;;;5.70;;
76262;SDS011;65080;50.908;6.916;2023-04-25T01:57:58;24.20;;;8.30;;
76262;SDS011;65080;50.908;6.916;2023-04-25T02:00:28;13.43;;;5.30;;
76262;SDS011;65080;50.908;6.916;2023-04-25T02:02:57;16.73;;;5.20;;
76262;SDS011;65080;50.908;6.916;2023-04-25T02:05:26;20.83;;;5.97;;
76262;SDS011;65080;50.908;6.916;2023-04-25T02:07:54;24.53;;;7.03;;
76262;SDS011;65080;50.908;6.916;2023-04-25T02:10:22;28.27;;;8.23;;
76262;SDS011;65080;50.908;6.916;2023-04-25T02:12:50;11.70;;;4.67;;
76262;SDS011;65080;50.908;6.916;2023-04-25T02:15:20;17.17;;;5.07;;
76262;SDS011;65080;50.908;6.916;2023-04-25T02:17:48;15.10;;;5.40;;
76262;SDS011;65080;50.908;6.916;2023-04-25T02:20:16;14.90;;;4.83;;
76262;SDS011;65080;50.908;6.916;2023-04-25T02:22:46;27.27;;;7.60;;
76262;SDS011;65080;50.908;6.916;2023-04-25T02:25:14;16.20;;;4.90;;
76262;SDS011;65080;50.908;6.916;2023-04-25T02:27:46;14.00;;;4.50;;
76262;SDS011;65080;50.908;6.916;2023-04-25T02:30:14;13.60;;;4.83;;
76262;SDS011;65080;50.908;6.916;2023-04-25T02:32:44;10.50;;;3.93;;
76262;SDS011;65080;50.908;6.916;2023-04-25T02:35:13;12.80;;;4.80;;
76262;SDS011;65080;50.908;6.916;2023-04-25T02:37:41;13.03;;;4.40;;
76262;SDS011;65080;50.908;6.916;2023-04-25T02:40:10;17.40;;;4.27;;
76262;SDS011;65080;50.908;6.916;2023-04-25T02:42:38;12.83;;;4.30;;
76262;SDS011;65080;50.908;6.916;2023-04-25T02:45:07;13.20;;;4.20;;
76262;SDS011;65080;50.908;6.916;2023-04-25T02:47:36;9.57;;;3.53;;
76262;SDS011;65080;50.908;6.916;2023-04-25T02:50:06;12.20;;;4.40;;
76262;SDS011;65080;50.908;6.916;2023-04-25T02:52:35;15.10;;;4.00;;
76262;SDS011;65080;50.908;6.916;2023-04-25T02:55:03;10.33;;;4.00;;
76262;SDS011;65080;50.908;6.916;2023-04-25T02:57:32;6.20;;;3.50;;
76262;SDS011;65080;50.908;6.916;2023-04-25T03:00:00;14.17;;;5.30;;
76262;SDS011;65080;50.908;6.916;2023-04-25T03:02:30;8.27;;;3.10;;
76262;SDS011;65080;50.908;6.916;2023-04-25T03:05:00;19.97;;;4.40;;
76262;SDS011;65080;50.908;6.916;2023-04-25T03:07:29;10.10;;;4.03;;
76262;SDS011;65080;50.908;6.916;2023-04-25T03:09:57;12.53;;;3.70;;
76262;SDS011;65080;50.908;6.916;2023-04-25T03:12:26;10.73;;;3.30;;
76262;SDS011;65080;50.908;6.916;2023-04-25T03:14:54;8.63;;;3.37;;
76262;SDS011;65080;50.908;6.916;2023-04-25T03:17:22;9.47;;;3.10;;
76262;SDS011;65080;50.908;6.916;2023-04-25T03:19:50;8.97;;;3.70;;
76262;SDS011;65080;50.908;6.916;2023-04-25T03:22:18;10.07;;;3.90;;
76262;SDS011;65080;50.908;6.916;2023-04-25T03:24:48;9.47;;;3.70;;
76262;SDS011;65080;50.908;6.916;2023-04-25T03:27:17;10.90;;;4.50;;
76262;SDS011;65080;50.908;6.916;2023-04-25T03:29:45;11.43;;;3.67;;
76262;SDS011;65080;50.908;6.916;2023-04-25T03:32:13;9.27;;;4.00;;
76262;SDS011;65080;50.908;6.916;2023-04-25T03:34:42;8.00;;;3.47;;
76262;SDS011;65080;50.908;6.916;2023-04-25T03:37:10;10.27;;;3.77;;
76262;SDS011;65080;50.908;6.916;2023-04-25T03:39:38;16.00;;;4.00;;
76262;SDS011;65080;50.908;6.916;2023-04-25T03:42:08;13.73;;;4.30;;
76262;SDS011;65080;50.908;6.916;2023-04-25T03:44:36;13.30;;;6.20;;
76262;SDS011;65080;50.908;6.916;2023-04-25T03:47:04;22.20;;;8.00;;
76262;SDS011;65080;50.908;6.916;2023-04-25T03:49:33;14.03;;;4.30;;
76262;SDS011;65080;50.908;6.916;2023-04-25T03:52:03;8.10;;;4.10;;
76262;SDS011;65080;50.908;6.916;2023-04-25T03:54:31;9.53;;;3.50;;
76262;SDS011;65080;50.908;6.916;2023-04-25T03:56:59;6.50;;;3.20;;
76262;SDS011;65080;50.908;6.916;2023-04-25T03:59:29;9.63;;;3.77;;
76262;SDS011;65080;50.908;6.916;2023-04-25T04:01:57;12.43;;;4.97;;
76262;SDS011;65080;50.908;6.916;2023-04-25T04:04:26;10.17;;;4.13;;
76262;SDS011;65080;50.908;6.916;2023-04-25T04:06:55;9.57;;;3.60;;
76262;SDS011;65080;50.908;6.916;2023-04-25T04:09:23;14.17;;;4.07;;
76262;SDS011;65080;50.908;6.916;2023-04-25T04:11:51;14.00;;;4.13;;
76262;SDS011;65080;50.908;6.916;2023-04-25T04:14:19;17.23;;;5.20;;
76262;SDS011;65080;50.908;6.916;2023-04-25T04:16:49;10.90;;;3.80;;
76262;SDS011;65080;50.908;6.916;2023-04-25T04:19:18;10.87;;;3.90;;
76262;SDS011;65080;50.908;6.916;2023-04-25T04:21:46;10.03;;;3.80;;
76262;SDS011;65080;50.908;6.916;2023-04-25T04:24:15;11.17;;;4.10;;
76262;SDS011;65080;50.908;6.916;2023-04-25T04:26:44;9.03;;;3.60;;
76262;SDS011;65080;50.908;6.916;2023-04-25T04:29:12;11.80;;;4.33;;
76262;SDS011;65080;50.908;6.916;2023-04-25T04:31:49;9.57;;;4.03;;
76262;SDS011;65080;50.908;6.916;2023-04-25T04:34:19;14.67;;;4.10;;
76262;SDS011;65080;50.908;6.916;2023-04-25T04:36:47;8.90;;;4.37;;
76262;SDS011;65080;50.908;6.916;2023-04-25T04:39:15;12.87;;;4.07;;
76262;SDS011;65080;50.908;6.916;2023-04-25T04:41:44;15.97;;;4.63;;
76262;SDS011;65080;50.908;6.916;2023-04-25T04:44:12;13.10;;;4.17;;
76262;SDS011;65080;50.908;6.916;2023-04-25T04:46:41;13.13;;;3.93;;
76262;SDS011;65080;50.908;6.916;2023-04-25T04:49:12;12.30;;;3.90;;
76262;SDS011;65080;50.908;6.916;2023-04-25T04:51:41;10.30;;;3.80;;
76262;SDS011;65080;50.908;6.916;2023-04-25T04:54:11;17.00;;;5.20;;
76262;SDS011;65080;50.908;6.916;2023-04-25T04:56:40;11.30;;;4.07;;
76262;SDS011;65080;50.908;6.916;2023-04-25T04:59:09;15.03;;;4.20;;
76262;SDS011;65080;50.908;6.916;2023-04-25T05:01:37;15.63;;;6.97;;
76262;SDS011;65080;50.908;6.916;2023-04-25T05:04:06;14.90;;;4.33;;
76262;SDS011;65080;50.908;6.916;2023-04-25T05:06:36;11.93;;;4.30;;
76262;SDS011;65080;50.908;6.916;2023-04-25T05:09:04;8.33;;;3.37;;
76262;SDS011;65080;50.908;6.916;2023-04-25T05:11:32;14.63;;;4.60;;
76262;SDS011;65080;50.908;6.916;2023-04-25T05:14:01;13.90;;;4.70;;
76262;SDS011;65080;50.908;6.916;2023-04-25T05:16:29;9.27;;;4.37;;
76262;SDS011;65080;50.908;6.916;2023-04-25T05:18:58;12.47;;;6.00;;
76262;SDS011;65080;50.908;6.916;2023-04-25T05:21:26;11.13;;;4.03;;
76262;SDS011;65080;50.908;6.916;2023-04-25T05:23:56;20.17;;;4.90;;
76262;SDS011;65080;50.908;6.916;2023-04-25T05:26:24;10.77;;;3.67;;
76262;SDS011;65080;50.908;6.916;2023-04-25T05:28:52;12.90;;;4.20;;
76262;SDS011;65080;50.908;6.916;2023-04-25T05:31:21;12.17;;;4.10;;
76262;SDS011;65080;50.908;6.916;2023-04-25T05:33:49;11.40;;;4.67;;
76262;SDS011;65080;50.908;6.916;2023-04-25T05:36:18;16.17;;;4.67;;
76262;SDS011;65080;50.908;6.916;2023-04-25T05:38:46;15.07;;;5.67;;
76262;SDS011;65080;50.908;6.916;2023-04-25T05:41:16;18.37;;;6.93;;
76262;SDS011;65080;50.908;6.916;2023-04-25T05:43:44;17.80;;;6.00;;
76262;SDS011;65080;50.908;6.916;2023-04-25T05:46:15;11.93;;;4.90;;
76262;SDS011;65080;50.908;6.916;2023-04-25T05:48:44;11.53;;;4.27;;
76262;SDS011;65080;50.908;6.916;2023-04-25T05:51:12;12.23;;;4.23;;
76262;SDS011;65080;50.908;6.916;2023-04-25T05:53:40;12.23;;;4.33;;
76262;SDS011;65080;50.908;6.916;2023-04-25T05:56:08;15.77;;;4.63;;
76262;SDS011;65080;50.908;6.916;2023-04-25T05:58:38;17.47;;;5.03;;
76262;SDS011;65080;50.908;6.916;2023-04-25T06:01:06;17.10;;;4.70;;
76262;SDS011;65080;50.908;6.916;2023-04-25T06:03:35;12.17;;;3.83;;
76262;SDS011;65080;50.908;6.916;2023-04-25T06:06:04;12.50;;;3.97;;
76262;SDS011;65080;50.908;6.916;2023-04-25T06:08:33;17.00;;;4.63;;
76262;SDS011;65080;50.908;6.916;2023-04-25T06:11:01;25.33;;;4.87;;
76262;SDS011;65080;50.908;6.916;2023-04-25T06:13:30;11.50;;;4.30;;
76262;SDS011;65080;50.908;6.916;2023-04-25T06:15:59;22.20;;;4.90;;
76262;SDS011;65080;50.908;6.916;2023-04-25T06:18:27;13.63;;;4.00;;
76262;SDS011;65080;50.908;6.916;2023-04-25T06:20:56;21.50;;;4.50;;
76262;SDS011;65080;50.908;6.916;2023-04-25T06:23:24;11.67;;;3.80;;
76262;SDS011;65080;50.908;6.916;2023-04-25T06:25:52;11.43;;;4.13;;
76262;SDS011;65080;50.908;6.916;2023-04-25T06:28:20;13.27;;;4.03;;
76262;SDS011;65080;50.908;6.916;2023-04-25T06:30:49;12.40;;;4.20;;
76262;SDS011;65080;50.908;6.916;2023-04-25T06:33:19;12.07;;;4.10;;
76262;SDS011;65080;50.908;6.916;2023-04-25T06:35:47;17.93;;;4.37;;
76262;SDS011;65080;50.908;6.916;2023-04-25T06:38:16;12.37;;;3.40;;
76262;SDS011;65080;50.908;6.916;2023-04-25T06:40:44;14.13;;;3.30;;
76262;SDS011;65080;50.908;6.916;2023-04-25T06:43:12;15.27;;;4.60;;
76262;SDS011;65080;50.908;6.916;2023-04-25T06:45:40;8.53;;;3.57;;
76262;SDS011;65080;50.908;6.916;2023-04-25T06:48:13;14.80;;;3.57;;
76262;SDS011;65080;50.908;6.916;2023-04-25T06:50:43;19.40;;;4.67;;
76262;SDS011;65080;50.908;6.916;2023-04-25T06:53:11;13.27;;;3.80;;
76262;SDS011;65080;50.908;6.916;2023-04-25T06:55:39;17.00;;;4.43;;
76262;SDS011;65080;50.908;6.916;2023-04-25T06:58:08;16.33;;;3.90;;
76262;SDS011;65080;50.908;6.916;2023-04-25T07:00:36;17.23;;;3.80;;
76262;SDS011;65080;50.908;6.916;2023-04-25T07:03:04;13.20;;;3.87;;
76262;SDS011;65080;50.908;6.916;2023-04-25T07:05:33;8.60;;;4.00;;
76262;SDS011;65080;50.908;6.916;2023-04-25T07:08:02;14.60;;;3.93;;
76262;SDS011;65080;50.908;6.916;2023-04-25T07:10:30;15.20;;;3.97;;
76262;SDS011;65080;50.908;6.916;2023-04-25T07:12:59;11.43;;;4.07;;
76262;SDS011;65080;50.908;6.916;2023-04-25T07:15:27;24.50;;;6.50;;
76262;SDS011;65080;50.908;6.916;2023-04-25T07:17:55;17.57;;;4.20;;
76262;SDS011;65080;50.908;6.916;2023-04-25T07:20:23;18.63;;;3.90;;
76262;SDS011;65080;50.908;6.916;2023-04-25T07:22:54;12.40;;;3.80;;
76262;SDS011;65080;50.908;6.916;2023-04-25T07:25:23;13.13;;;4.13;;
76262;SDS011;65080;50.908;6.916;2023-04-25T07:27:51;14.07;;;3.30;;
76262;SDS011;65080;50.908;6.916;2023-04-25T07:30:20;18.30;;;4.70;;
76262;SDS011;65080;50.908;6.916;2023-04-25T07:32:49;14.03;;;3.20;;
76262;SDS011;65080;50.908;6.916;2023-04-25T07:35:17;8.00;;;3.60;;
76262;SDS011;65080;50.908;6.916;2023-04-25T07:37:46;9.13;;;2.63;;
76262;SDS011;65080;50.908;6.916;2023-04-25T07:40:14;15.43;;;2.70;;
76262;SDS011;65080;50.908;6.916;2023-04-25T07:42:44;19.63;;;3.30;;
76262;SDS011;65080;50.908;6.916;2023-04-25T07:45:12;10.53;;;4.30;;
76262;SDS011;65080;50.908;6.916;2023-04-25T07:47:41;12.33;;;2.93;;
76262;SDS011;65080;50.908;6.916;2023-04-25T07:50:10;9.97;;;2.90;;
76262;SDS011;65080;50.908;6.916;2023-04-25T07:52:38;13.03;;;3.60;;
76262;SDS011;65080;50.908;6.916;2023-04-25T07:55:07;7.30;;;3.03;;
76262;SDS011;65080;50.908;6.916;2023-04-25T07:57:36;9.33;;;2.13;;
76262;SDS011;65080;50.908;6.916;2023-04-25T08:00:06;7.50;;;2.53;;
76262;SDS011;65080;50.908;6.916;2023-04-25T08:02:37;10.67;;;2.70;;
76262;SDS011;65080;50.908;6.916;2023-04-25T08:05:08;11.20;;;2.97;;
76262;SDS011;65080;50.908;6.916;2023-04-25T08:07:39;9.10;;;3.07;;
76262;SDS011;65080;50.908;6.916;2023-04-25T08:10:08;13.80;;;2.40;;
76262;SDS011;65080;50.908;6.916;2023-04-25T08:12:36;13.03;;;2.83;;
76262;SDS011;65080;50.908;6.916;2023-04-25T08:15:07;8.67;;;2.90;;
76262;SDS011;65080;50.908;6.916;2023-04-25T08:17:36;6.03;;;2.57;;
76262;SDS011;65080;50.908;6.916;2023-04-25T08:20:05;8.63;;;3.20;;
76262;SDS011;65080;50.908;6.916;2023-04-25T08:22:35;12.57;;;2.43;;
76262;SDS011;65080;50.908;6.916;2023-04-25T08:25:04;11.33;;;2.17;;
76262;SDS011;65080;50.908;6.916;2023-04-25T08:27:32;9.30;;;2.67;;
76262;SDS011;65080;50.908;6.916;2023-04-25T08:30:01;6.40;;;2.43;;
76262;SDS011;65080;50.908;6.916;2023-04-25T08:32:31;6.03;;;2.37;;
76262;SDS011;65080;50.908;6.916;2023-04-25T08:35:00;14.30;;;3.20;;
76262;SDS011;65080;50.908;6.916;2023-04-25T08:37:28;6.10;;;2.77;;
76262;SDS011;65080;50.908;6.916;2023-04-25T08:39:57;7.03;;;2.43;;
76262;SDS011;65080;50.908;6.916;2023-04-25T08:42:26;12.00;;;2.57;;
76262;SDS011;65080;50.908;6.916;2023-04-25T08:44:57;4.40;;;2.10;;
76262;SDS011;65080;50.908;6.916;2023-04-25T08:47:33;7.27;;;1.67;;
76262;SDS011;65080;50.908;6.916;2023-04-25T08:50:03;5.43;;;1.97;;
76262;SDS011;65080;50.908;6.916;2023-04-25T08:52:35;6.40;;;2.27;;
76262;SDS011;65080;50.908;6.916;2023-04-25T08:55:09;6.10;;;1.80;;
76262;SDS011;65080;50.908;6.916;2023-04-25T08:57:40;7.20;;;2.00;;
76262;SDS011;65080;50.908;6.916;2023-04-25T09:00:10;12.40;;;2.73;;
76262;SDS011;65080;50.908;6.916;2023-04-25T09:02:42;6.20;;;2.13;;
76262;SDS011;65080;50.908;6.916;2023-04-25T09:05:12;6.83;;;1.80;;
76262;SDS011;65080;50.908;6.916;2023-04-25T09:07:41;8.27;;;2.10;;
76262;SDS011;65080;50.908;6.916;2023-04-25T09:10:09;12.43;;;3.90;;
76262;SDS011;65080;50.908;6.916;2023-04-25T09:12:37;6.30;;;2.13;;
76262;SDS011;65080;50.908;6.916;2023-04-25T09:15:06;12.57;;;4.03;;
76262;SDS011;65080;50.908;6.916;2023-04-25T09:17:36;8.07;;;2.17;;
76262;SDS011;65080;50.908;6.916;2023-04-25T09:20:09;8.43;;;3.63;;
76262;SDS011;65080;50.908;6.916;2023-04-25T09:22:39;6.80;;;1.87;;
76262;SDS011;65080;50.908;6.916;2023-04-25T09:25:10;11.93;;;3.00;;
76262;SDS011;65080;50.908;6.916;2023-04-25T09:27:49;5.47;;;2.00;;
76262;SDS011;65080;50.908;6.916;2023-04-25T09:30:18;7.80;;;2.27;;
76262;SDS011;65080;50.908;6.916;2023-04-25T09:32:56;10.23;;;2.40;;
76262;SDS011;65080;50.908;6.916;2023-04-25T09:35:26;7.67;;;2.13;;
76262;SDS011;65080;50.908;6.916;2023-04-25T09:37:55;7.67;;;2.50;;
76262;SDS011;65080;50.908;6.916;2023-04-25T09:40:23;7.87;;;2.00;;
76262;SDS011;65080;50.908;6.916;2023-04-25T09:42:54;6.60;;;2.03;;
76262;SDS011;65080;50.908;6.916;2023-04-25T09:45:26;9.97;;;2.00;;
76262;SDS011;65080;50.908;6.916;2023-04-25T09:47:59;9.17;;;2.30;;
76262;SDS011;65080;50.908;6.916;2023-04-25T09:50:34;13.87;;;2.80;;
76262;SDS011;65080;50.908;6.916;2023-04-25T09:53:06;8.60;;;2.43;;
76262;SDS011;65080;50.908;6.916;2023-04-25T09:55:35;7.33;;;2.13;;
76262;SDS011;65080;50.908;6.916;2023-04-25T09:58:04;5.20;;;2.10;;
76262;SDS011;65080;50.908;6.916;2023-04-25T10:00:33;7.27;;;2.10;;
76262;SDS011;65080;50.908;6.916;2023-04-25T10:03:02;6.90;;;1.97;;
76262;SDS011;65080;50.908;6.916;2023-04-25T10:05:34;6.60;;;2.00;;
76262;SDS011;65080;50.908;6.916;2023-04-25T10:08:04;7.67;;;2.20;;
76262;SDS011;65080;50.908;6.916;2023-04-25T10:10:35;11.70;;;2.90;;
76262;SDS011;65080;50.908;6.916;2023-04-25T10:13:05;8.10;;;2.27;;
76262;SDS011;65080;50.908;6.916;2023-04-25T10:15:35;6.70;;;2.10;;
76262;SDS011;65080;50.908;6.916;2023-04-25T10:18:06;5.33;;;1.87;;
76262;SDS011;65080;50.908;6.916;2023-04-25T10:20:36;6.50;;;2.33;;
76262;SDS011;65080;50.908;6.916;2023-04-25T10:23:06;10.03;;;2.57;;
76262;SDS011;65080;50.908;6.916;2023-04-25T10:25:40;10.13;;;3.50;;
76262;SDS011;65080;50.908;6.916;2023-04-25T10:28:09;6.90;;;1.97;;
76262;SDS011;65080;50.908;6.916;2023-04-25T10:30:38;7.20;;;2.50;;
76262;SDS011;65080;50.908;6.916;2023-04-25T10:33:29;6.80;;;2.10;;
76262;SDS011;65080;50.908;6.916;2023-04-25T10:36:10;3.60;;;1.80;;
76262;SDS011;65080;50.908;6.916;2023-04-25T10:38:40;9.20;;;2.00;;
76262;SDS011;65080;50.908;6.916;2023-04-25T10:41:10;9.70;;;2.27;;
76262;SDS011;65080;50.908;6.916;2023-04-25T10:43:40;8.10;;;2.17;;
76262;SDS011;65080;50.908;6.916;2023-04-25T10:46:12;5.97;;;2.27;;
76262;SDS011;65080;50.908;6.916;2023-04-25T10:48:45;8.47;;;2.10;;
76262;SDS011;65080;50.908;6.916;2023-04-25T10:51:17;11.43;;;2.30;;
76262;SDS011;65080;50.908;6.916;2023-04-25T10:53:56;9.03;;;2.00;;
76262;SDS011;65080;50.908;6.916;2023-04-25T10:56:27;4.77;;;2.03;;
76262;SDS011;65080;50.908;6.916;2023-04-25T10:59:03;9.40;;;2.67;;
76262;SDS011;65080;50.908;6.916;2023-04-25T11:01:38;13.83;;;2.93;;
76262;SDS011;65080;50.908;6.916;2023-04-25T11:04:19;11.37;;;3.10;;
76262;SDS011;65080;50.908;6.916;2023-04-25T11:06:59;11.33;;;3.10;;
76262;SDS011;65080;50.908;6.916;2023-04-25T11:09:34;5.47;;;1.60;;
76262;SDS011;65080;50.908;6.916;2023-04-25T11:12:03;8.70;;;2.00;;
76262;SDS011;65080;50.908;6.916;2023-04-25T11:14:31;8.67;;;2.67;;
76262;SDS011;65080;50.908;6.916;2023-04-25T11:17:00;10.73;;;2.67;;
76262;SDS011;65080;50.908;6.916;2023-04-25T11:19:29;13.53;;;2.90;;
76262;SDS011;65080;50.908;6.916;2023-04-25T11:21:59;8.10;;;1.87;;
76262;SDS011;65080;50.908;6.916;2023-04-25T11:24:29;10.00;;;2.10;;
76262;SDS011;65080;50.908;6.916;2023-04-25T11:26:58;5.23;;;2.10;;
76262;SDS011;65080;50.908;6.916;2023-04-25T11:29:29;6.63;;;1.60;;
76262;SDS011;65080;50.908;6.916;2023-04-25T11:31:58;6.87;;;1.87;;
76262;SDS011;65080;50.908;6.916;2023-04-25T11:34:28;4.93;;;1.43;;
76262;SDS011;65080;50.908;6.916;2023-04-25T11:36:59;6.87;;;1.90;;
76262;SDS011;65080;50.908;6.916;2023-04-25T11:39:28;8.97;;;1.70;;
76262;SDS011;65080;50.908;6.916;2023-04-25T11:41:57;6.70;;;1.70;;
76262;SDS011;65080;50.908;6.916;2023-04-25T11:44:27;4.07;;;1.50;;
76262;SDS011;65080;50.908;6.916;2023-04-25T11:46:56;5.43;;;1.60;;
76262;SDS011;65080;50.908;6.916;2023-04-25T11:49:24;7.63;;;1.73;;
76262;SDS011;65080;50.908;6.916;2023-04-25T11:51:59;12.27;;;2.00;;
76262;SDS011;65080;50.908;6.916;2023-04-25T11:54:27;8.87;;;2.00;;
76262;SDS011;65080;50.908;6.916;2023-04-25T11:56:56;5.97;;;1.63;;
76262;SDS011;65080;50.908;6.916;2023-04-25T11:59:24;10.93;;;1.97;;
76262;SDS011;65080;50.908;6.916;2023-04-25T12:01:54;6.20;;;1.60;;
76262;SDS011;65080;50.908;6.916;2023-04-25T12:04:24;4.33;;;1.67;;
76262;SDS011;65080;50.908;6.916;2023-04-25T12:06:53;5.27;;;2.03;;
76262;SDS011;65080;50.908;6.916;2023-04-25T12:09:28;7.40;;;2.10;;
76262;SDS011;65080;50.908;6.916;2023-04-25T12:11:58;5.40;;;1.37;;
76262;SDS011;65080;50.908;6.916;2023-04-25T12:14:30;3.00;;;1.30;;
76262;SDS011;65080;50.908;6.916;2023-04-25T12:17:00;5.20;;;2.73;;
76262;SDS011;65080;50.908;6.916;2023-04-25T12:19:31;6.30;;;1.80;;
76262;SDS011;65080;50.908;6.916;2023-04-25T12:22:00;6.10;;;2.10;;
76262;SDS011;65080;50.908;6.916;2023-04-25T12:24:33;5.70;;;1.40;;
76262;SDS011;65080;50.908;6.916;2023-04-25T12:27:05;5.00;;;1.60;;
76262;SDS011;65080;50.908;6.916;2023-04-25T12:29:35;4.67;;;1.60;;
76262;SDS011;65080;50.908;6.916;2023-04-25T12:32:15;5.37;;;1.70;;
76262;SDS011;65080;50.908;6.916;2023-04-25T12:34:44;4.57;;;1.50;;
76262;SDS011;65080;50.908;6.916;2023-04-25T12:37:13;6.63;;;1.80;;
76262;SDS011;65080;50.908;6.916;2023-04-25T12:39:43;6.27;;;1.60;;
76262;SDS011;65080;50.908;6.916;2023-04-25T12:42:12;6.20;;;1.43;;
76262;SDS011;65080;50.908;6.916;2023-04-25T12:44:40;4.70;;;1.33;;
76262;SDS011;65080;50.908;6.916;2023-04-25T12:47:08;5.03;;;1.83;;
76262;SDS011;65080;50.908;6.916;2023-04-25T12:49:37;10.30;;;5.00;;
76262;SDS011;65080;50.908;6.916;2023-04-25T12:52:06;7.53;;;1.70;;
76262;SDS011;65080;50.908;6.916;2023-04-25T12:54:34;6.23;;;1.57;;
76262;SDS011;65080;50.908;6.916;2023-04-25T12:57:04;4.67;;;1.73;;
76262;SDS011;65080;50.908;6.916;2023-04-25T12:59:32;3.13;;;1.23;;
76262;SDS011;65080;50.908;6.916;2023-04-25T13:02:01;5.03;;;1.33;;
76262;SDS011;65080;50.908;6.916;2023-04-25T13:04:29;7.23;;;1.67;;
76262;SDS011;65080;50.908;6.916;2023-04-25T13:06:58;6.63;;;1.90;;
76262;SDS011;65080;50.908;6.916;2023-04-25T13:09:26;4.80;;;1.57;;
76262;SDS011;65080;50.908;6.916;2023-04-25T13:11:54;7.67;;;2.83;;
76262;SDS011;65080;50.908;6.916;2023-04-25T13:14:26;5.57;;;1.90;;
76262;SDS011;65080;50.908;6.916;2023-04-25T13:16:55;9.83;;;2.33;;
76262;SDS011;65080;50.908;6.916;2023-04-25T13:19:24;6.57;;;1.80;;
76262;SDS011;65080;50.908;6.916;2023-04-25T13:21:53;7.40;;;2.53;;
76262;SDS011;65080;50.908;6.916;2023-04-25T13:24:23;5.97;;;1.80;;
76262;SDS011;65080;50.908;6.916;2023-04-25T13:26:52;9.20;;;2.20;;
76262;SDS011;65080;50.908;6.916;2023-04-25T13:29:20;9.10;;;1.60;;
76262;SDS011;65080;50.908;6.916;2023-04-25T13:31:50;3.47;;;1.63;;
76262;SDS011;65080;50.908;6.916;2023-04-25T13:34:18;5.07;;;1.60;;
76262;SDS011;65080;50.908;6.916;2023-04-25T13:36:47;6.30;;;1.70;;
76262;SDS011;65080;50.908;6.916;2023-04-25T13:39:15;6.33;;;1.97;;
76262;SDS011;65080;50.908;6.916;2023-04-25T13:41:43;5.33;;;1.30;;
76262;SDS011;65080;50.908;6.916;2023-04-25T13:44:12;4.60;;;1.60;;
76262;SDS011;65080;50.908;6.916;2023-04-25T13:46:40;3.93;;;1.20;;
76262;SDS011;65080;50.908;6.916;2023-04-25T13:49:14;3.33;;;1.60;;
76262;SDS011;65080;50.908;6.916;2023-04-25T13:51:45;3.27;;;1.20;;
76262;SDS011;65080;50.908;6.916;2023-04-25T13:54:13;3.63;;;1.37;;
76262;SDS011;65080;50.908;6.916;2023-04-25T13:56:42;2.73;;;1.30;;
76262;SDS011;65080;50.908;6.916;2023-04-25T13:59:10;2.30;;;1.10;;
76262;SDS011;65080;50.908;6.916;2023-04-25T14:01:38;4.17;;;0.97;;
76262;SDS011;65080;50.908;6.916;2023-04-25T14:04:07;7.03;;;1.30;;
76262;SDS011;65080;50.908;6.916;2023-04-25T14:06:37;4.00;;;1.30;;
76262;SDS011;65080;50.908;6.916;2023-04-25T14:09:05;1.50;;;1.00;;
76262;SDS011;65080;50.908;6.916;2023-04-25T14:11:37;4.90;;;1.60;;
76262;SDS011;65080;50.908;6.916;2023-04-25T14:14:05;3.50;;;1.30;;
76262;SDS011;65080;50.908;6.916;2023-04-25T14:16:33;2.00;;;1.13;;
76262;SDS011;65080;50.908;6.916;2023-04-25T14:19:02;2.00;;;1.40;;
76262;SDS011;65080;50.908;6.916;2023-04-25T14:21:30;1.53;;;0.90;;
76262;SDS011;65080;50.908;6.916;2023-04-25T14:24:01;2.93;;;1.60;;
76262;SDS011;65080;50.908;6.916;2023-04-25T14:26:32;2.40;;;1.03;;
76262;SDS011;65080;50.908;6.916;2023-04-25T14:29:02;3.73;;;1.50;;
76262;SDS011;65080;50.908;6.916;2023-04-25T14:31:30;2.90;;;1.10;;
76262;SDS011;65080;50.908;6.916;2023-04-25T14:33:59;3.53;;;1.30;;
76262;SDS011;65080;50.908;6.916;2023-04-25T14:36:27;3.40;;;1.20;;
76262;SDS011;65080;50.908;6.916;2023-04-25T14:38:57;2.13;;;1.43;;
76262;SDS011;65080;50.908;6.916;2023-04-25T14:41:27;2.30;;;1.00;;
76262;SDS011;65080;50.908;6.916;2023-04-25T14:43:55;1.70;;;0.90;;
76262;SDS011;65080;50.908;6.916;2023-04-25T14:46:24;2.20;;;0.80;;
76262;SDS011;65080;50.908;6.916;2023-04-25T14:48:52;2.40;;;1.03;;
76262;SDS011;65080;50.908;6.916;2023-04-25T14:51:22;4.20;;;1.00;;
76262;SDS011;65080;50.908;6.916;2023-04-25T14:53:50;4.00;;;1.17;;